Time;durP1;ratioP1;P1;durP2;ratioP2;P2;SDS_P1;SDS_P2;PMS_P1;PMS_P2;Temp;Humidity;BMP_temperature;BMP_pressure;BME280_temperature;BME280_humidity;BME280_pressure;Samples;Min_cycle;Max_cycle;Signal;HPM_P1;HPM_P2
2023/09/05 00:01:57;;;;;;;3.50;3.20;;;;;;;;;;5074994;28;20200;-82
2023/09/05 00:04:24;;;;;;;3.30;2.90;;;;;;;;;;5077062;28;20547;-82
2023/09/05 00:06:50;;;;;;;3.30;3.00;;;;;;;;;;5075527;28;20743;-81
2023/09/05 00:09:17;;;;;;;3.00;2.80;;;;;;;;;;5076364;28;20172;-82
2023/09/05 00:11:44;;;;;;;3.10;2.80;;;;;;;;;;5066199;28;20682;-81
2023/09/05 00:14:10;;;;;;;3.60;2.77;;;;;;;;;;5076167;28;20169;-82
2023/09/05 00:16:37;;;;;;;3.10;2.80;;;;;;;;;;5074857;28;20181;-82
2023/09/05 00:19:03;;;;;;;3.00;2.70;;;;;;;;;;5075717;28;20185;-82
2023/09/05 00:21:29;;;;;;;2.77;2.57;;;;;;;;;;5074808;28;20161;-82
2023/09/05 00:24:15;;;;;;;2.97;2.77;;;;;;;;;;5074456;28;20175;-82
2023/09/05 00:26:46;;;;;;;3.00;2.80;;;;;;;;;;5071469;28;20187;-82
2023/09/05 00:29:12;;;;;;;4.37;2.70;;;;;;;;;;5070695;28;20200;-82
2023/09/05 00:31:40;;;;;;;7.47;3.07;;;;;;;;;;5074804;28;20194;-81
2023/09/05 00:34:06;;;;;;;3.13;2.80;;;;;;;;;;5076949;28;20188;-81
2023/09/05 00:36:32;;;;;;;4.73;2.87;;;;;;;;;;5076051;28;20180;-79
2023/09/05 00:39:02;;;;;;;2.50;2.30;;;;;;;;;;5074696;28;20202;-78
2023/09/05 00:41:28;;;;;;;4.10;2.53;;;;;;;;;;5041385;28;20169;-78
2023/09/05 00:43:54;;;;;;;3.03;2.73;;;;;;;;;;5069792;28;20673;-77
2023/09/05 00:46:21;;;;;;;3.13;2.60;;;;;;;;;;5075013;28;20181;-80
2023/09/05 00:48:47;;;;;;;2.53;2.33;;;;;;;;;;5074341;28;20640;-78
2023/09/05 00:51:13;;;;;;;2.73;2.53;;;;;;;;;;5075133;28;20612;-78
2023/09/05 00:53:39;;;;;;;3.33;2.50;;;;;;;;;;5074403;28;20196;-77
2023/09/05 00:56:05;;;;;;;2.57;2.37;;;;;;;;;;5074633;28;20177;-81
2023/09/05 00:58:31;;;;;;;2.60;2.40;;;;;;;;;;5065488;28;20216;-80
2023/09/05 01:00:58;;;;;;;2.60;2.40;;;;;;;;;;5069198;28;20267;-81
2023/09/05 01:03:23;;;;;;;4.10;2.83;;;;;;;;;;5074477;28;20188;-80
2023/09/05 01:05:54;;;;;;;3.20;2.90;;;;;;;;;;5073545;28;20557;-81
2023/09/05 01:08:30;;;;;;;2.83;2.57;;;;;;;;;;5059353;28;20703;-80
2023/09/05 01:10:59;;;;;;;4.30;3.20;;;;;;;;;;5064908;28;20217;-80
2023/09/05 01:13:25;;;;;;;2.67;2.47;;;;;;;;;;5076039;28;20195;-80
2023/09/05 01:15:52;;;;;;;3.30;3.00;;;;;;;;;;5075431;28;20550;-80
2023/09/05 01:18:18;;;;;;;2.80;2.60;;;;;;;;;;5073833;28;20184;-81
2023/09/05 01:20:59;;;;;;;2.60;2.40;;;;;;;;;;5084740;28;20522;-81
2023/09/05 01:23:29;;;;;;;2.50;2.30;;;;;;;;;;5072960;28;20207;-81
2023/09/05 01:25:55;;;;;;;4.60;2.30;;;;;;;;;;5073509;28;20171;-80
2023/09/05 01:28:23;;;;;;;3.23;2.93;;;;;;;;;;5072920;28;20778;-81
2023/09/05 01:30:50;;;;;;;2.77;2.57;;;;;;;;;;5074182;28;20175;-82
2023/09/05 01:33:16;;;;;;;2.90;2.70;;;;;;;;;;5070982;28;20883;-82
2023/09/05 01:35:42;;;;;;;2.77;2.57;;;;;;;;;;5055178;28;20165;-80
2023/09/05 01:38:09;;;;;;;3.17;2.87;;;;;;;;;;5071014;28;20178;-81
2023/09/05 01:40:35;;;;;;;3.00;2.80;;;;;;;;;;5071636;28;20184;-80
2023/09/05 01:43:01;;;;;;;3.13;2.73;;;;;;;;;;5072654;28;20217;-81
2023/09/05 01:45:27;;;;;;;3.80;2.70;;;;;;;;;;5072788;28;20207;-81
2023/09/05 01:47:53;;;;;;;3.20;2.90;;;;;;;;;;5071261;28;20329;-79
2023/09/05 01:50:19;;;;;;;2.30;2.20;;;;;;;;;;5074839;28;20185;-79
2023/09/05 01:52:45;;;;;;;3.67;2.73;;;;;;;;;;5056905;28;20200;-78
2023/09/05 01:55:11;;;;;;;2.77;2.57;;;;;;;;;;5076517;28;20189;-79
2023/09/05 01:57:37;;;;;;;2.70;2.50;;;;;;;;;;5057687;28;20520;-78
2023/09/05 02:00:04;;;;;;;4.57;2.83;;;;;;;;;;5075153;28;20508;-80
2023/09/05 02:02:30;;;;;;;3.60;3.10;;;;;;;;;;5073222;28;20593;-79
2023/09/05 02:04:56;;;;;;;2.80;2.60;;;;;;;;;;5072727;28;20178;-80
2023/09/05 02:07:22;;;;;;;3.00;2.70;;;;;;;;;;5074301;28;20247;-81
2023/09/05 02:09:48;;;;;;;2.37;2.17;;;;;;;;;;5075806;28;20633;-81
2023/09/05 02:12:14;;;;;;;2.90;2.70;;;;;;;;;;5076492;28;20217;-80
2023/09/05 02:14:45;;;;;;;2.70;2.50;;;;;;;;;;5075356;28;20184;-81
2023/09/05 02:17:16;;;;;;;2.50;2.30;;;;;;;;;;5074849;28;20632;-80
2023/09/05 02:19:42;;;;;;;3.87;2.40;;;;;;;;;;5075918;28;20219;-80
2023/09/05 02:22:08;;;;;;;2.70;2.50;;;;;;;;;;5075335;28;20250;-80
2023/09/05 02:24:34;;;;;;;2.80;2.60;;;;;;;;;;5062855;28;20598;-81
2023/09/05 02:27:01;;;;;;;3.20;2.90;;;;;;;;;;5074362;28;20198;-80
2023/09/05 02:29:28;;;;;;;2.53;2.33;;;;;;;;;;5076560;28;20261;-80
2023/09/05 02:31:54;;;;;;;2.60;2.40;;;;;;;;;;5076556;28;21006;-80
2023/09/05 02:34:20;;;;;;;2.93;2.73;;;;;;;;;;5076759;28;20639;-80
2023/09/05 02:36:46;;;;;;;2.63;2.43;;;;;;;;;;5073936;28;20184;-80
2023/09/05 02:39:12;;;;;;;3.07;2.83;;;;;;;;;;5075099;28;20180;-80
2023/09/05 02:41:39;;;;;;;2.57;2.37;;;;;;;;;;5055505;28;20177;-81
2023/09/05 02:44:05;;;;;;;2.60;2.40;;;;;;;;;;5074457;28;20211;-81
2023/09/05 02:46:31;;;;;;;3.30;3.00;;;;;;;;;;5073911;28;20183;-82
2023/09/05 02:48:57;;;;;;;2.43;2.23;;;;;;;;;;5074031;28;20184;-80
2023/09/05 02:51:23;;;;;;;2.53;2.33;;;;;;;;;;5075481;28;20181;-80
2023/09/05 02:53:49;;;;;;;2.73;2.53;;;;;;;;;;5073270;28;20215;-80
2023/09/05 02:56:18;;;;;;;2.43;2.23;;;;;;;;;;5067973;28;20179;-82
2023/09/05 02:58:44;;;;;;;2.73;2.53;;;;;;;;;;5068432;28;20238;-82
2023/09/05 03:01:11;;;;;;;3.70;3.40;;;;;;;;;;5069449;28;20187;-83
2023/09/05 03:03:37;;;;;;;2.93;2.63;;;;;;;;;;5069792;28;20236;-82
2023/09/05 03:06:13;;;;;;;2.43;2.23;;;;;;;;;;5070515;28;20222;-82
2023/09/05 03:08:41;;;;;;;2.60;2.40;;;;;;;;;;5071260;28;20167;-82
2023/09/05 03:11:08;;;;;;;2.97;2.53;;;;;;;;;;5071191;28;20176;-82
2023/09/05 03:13:34;;;;;;;2.77;2.50;;;;;;;;;;5070667;28;20658;-83
2023/09/05 03:16:00;;;;;;;2.70;2.50;;;;;;;;;;5074484;28;20609;-82
2023/09/05 03:18:26;;;;;;;5.33;3.23;;;;;;;;;;5080055;28;20195;-82
2023/09/05 03:20:52;;;;;;;2.60;2.40;;;;;;;;;;5090018;28;20173;-83
2023/09/05 03:23:18;;;;;;;3.03;2.40;;;;;;;;;;5073348;28;20189;-82
2023/09/05 03:25:44;;;;;;;2.73;2.53;;;;;;;;;;5074286;28;20306;-83
2023/09/05 03:28:13;;;;;;;3.43;2.40;;;;;;;;;;5072629;28;20205;-83
2023/09/05 03:30:40;;;;;;;2.57;2.37;;;;;;;;;;5075392;28;20181;-83
2023/09/05 03:33:06;;;;;;;2.97;2.77;;;;;;;;;;5073392;28;20566;-83
2023/09/05 03:35:33;;;;;;;3.37;2.20;;;;;;;;;;5081963;28;20257;-83
2023/09/05 03:37:59;;;;;;;2.70;2.50;;;;;;;;;;5094689;28;20160;-83
2023/09/05 03:40:25;;;;;;;2.93;2.73;;;;;;;;;;5084545;28;20173;-83
2023/09/05 03:42:51;;;;;;;3.83;2.80;;;;;;;;;;5073409;28;20726;-82
2023/09/05 03:45:18;;;;;;;2.90;2.60;;;;;;;;;;5075031;28;20181;-82
2023/09/05 03:47:44;;;;;;;3.30;2.63;;;;;;;;;;5072787;28;20265;-81
2023/09/05 03:50:10;;;;;;;2.77;2.53;;;;;;;;;;5071595;28;20640;-82
2023/09/05 03:52:36;;;;;;;2.87;2.50;;;;;;;;;;5067035;28;20233;-83
2023/09/05 03:55:03;;;;;;;2.40;2.20;;;;;;;;;;5074328;28;20218;-82
2023/09/05 03:57:29;;;;;;;2.73;2.53;;;;;;;;;;5070591;28;20569;-82
2023/09/05 03:59:55;;;;;;;2.60;2.40;;;;;;;;;;5074609;28;20179;-80
2023/09/05 04:02:20;;;;;;;3.93;3.63;;;;;;;;;;5055725;28;20206;-80
2023/09/05 04:04:47;;;;;;;3.30;2.53;;;;;;;;;;5059376;28;20654;-81
2023/09/05 04:07:13;;;;;;;3.90;3.70;;;;;;;;;;5069662;28;20228;-80
2023/09/05 04:09:39;;;;;;;2.37;2.17;;;;;;;;;;5071191;28;20194;-80
2023/09/05 04:12:05;;;;;;;2.67;2.47;;;;;;;;;;5073526;28;20537;-80
2023/09/05 04:14:32;;;;;;;2.40;2.20;;;;;;;;;;5076337;28;20187;-80
2023/09/05 04:16:58;;;;;;;2.80;2.60;;;;;;;;;;5074402;28;20167;-83
2023/09/05 04:19:24;;;;;;;2.83;2.63;;;;;;;;;;5045221;28;20523;-83
2023/09/05 04:21:50;;;;;;;2.87;2.20;;;;;;;;;;5073621;28;20745;-82
2023/09/05 04:24:16;;;;;;;2.70;2.50;;;;;;;;;;5072225;28;20644;-82
2023/09/05 04:26:44;;;;;;;2.63;2.43;;;;;;;;;;5079579;28;20170;-87
2023/09/05 04:29:10;;;;;;;2.83;2.63;;;;;;;;;;5056753;28;20579;-87
2023/09/05 04:31:36;;;;;;;2.50;2.30;;;;;;;;;;5075840;28;20194;-87
2023/09/05 04:34:02;;;;;;;2.50;2.30;;;;;;;;;;5059239;28;20201;-87
2023/09/05 04:36:28;;;;;;;2.87;2.53;;;;;;;;;;5075006;28;20162;-87
2023/09/05 04:38:54;;;;;;;3.17;2.30;;;;;;;;;;5063697;28;20629;-85
2023/09/05 04:41:20;;;;;;;2.30;2.20;;;;;;;;;;5077227;28;20168;-84
2023/09/05 04:43:47;;;;;;;2.93;2.73;;;;;;;;;;5077116;28;20175;-87
2023/09/05 04:46:14;;;;;;;3.67;3.47;;;;;;;;;;5074566;28;20664;-87
2023/09/05 04:48:40;;;;;;;2.83;2.63;;;;;;;;;;5072311;28;20586;-86
2023/09/05 04:51:06;;;;;;;2.70;2.50;;;;;;;;;;5073586;28;20291;-87
2023/09/05 04:53:32;;;;;;;2.70;2.50;;;;;;;;;;5073995;28;20342;-85
2023/09/05 04:56:00;;;;;;;2.83;2.63;;;;;;;;;;5071194;28;20303;-88
2023/09/05 04:58:30;;;;;;;3.13;2.70;;;;;;;;;;5055237;28;20209;-86
2023/09/05 05:01:02;;;;;;;4.07;3.77;;;;;;;;;;5076988;28;20172;-85
2023/09/05 05:03:29;;;;;;;2.60;2.23;;;;;;;;;;5054105;28;20184;-87
2023/09/05 05:05:55;;;;;;;2.57;2.37;;;;;;;;;;5064577;28;20249;-88
2023/09/05 05:08:21;;;;;;;2.93;2.30;;;;;;;;;;5069920;28;20265;-85
2023/09/05 05:10:48;;;;;;;3.00;2.80;;;;;;;;;;5061746;28;20303;-88
2023/09/05 05:13:14;;;;;;;2.53;2.33;;;;;;;;;;5071757;28;20193;-84
2023/09/05 05:15:40;;;;;;;2.70;2.50;;;;;;;;;;5077666;28;20161;-87
2023/09/05 05:18:06;;;;;;;6.37;2.60;;;;;;;;;;5065423;28;20181;-80
2023/09/05 05:20:32;;;;;;;2.83;2.60;;;;;;;;;;5067760;28;20629;-81
2023/09/05 05:22:58;;;;;;;2.77;2.57;;;;;;;;;;5075863;28;20337;-81
2023/09/05 05:25:24;;;;;;;2.70;2.50;;;;;;;;;;5064056;28;20182;-82
2023/09/05 05:27:50;;;;;;;2.60;2.40;;;;;;;;;;5066916;28;20213;-86
2023/09/05 05:30:16;;;;;;;2.57;2.20;;;;;;;;;;5064363;28;20184;-82
2023/09/05 05:32:46;;;;;;;3.23;2.93;;;;;;;;;;5064166;28;20201;-81
2023/09/05 05:35:12;;;;;;;5.23;3.07;;;;;;;;;;5063342;28;20173;-81
2023/09/05 05:37:38;;;;;;;7.27;3.63;;;;;;;;;;5076676;28;20172;-88
2023/09/05 05:40:04;;;;;;;4.33;2.87;;;;;;;;;;5077544;28;20270;-85
2023/09/05 05:42:30;;;;;;;5.37;2.80;;;;;;;;;;5071325;28;20528;-83
2023/09/05 05:44:56;;;;;;;4.47;3.33;;;;;;;;;;5054053;28;20685;-84
2023/09/05 05:47:24;;;;;;;7.23;3.53;;;;;;;;;;5037543;28;20196;-85
2023/09/05 05:49:50;;;;;;;3.47;3.17;;;;;;;;;;5063287;28;20180;-88
2023/09/05 05:52:16;;;;;;;5.30;3.20;;;;;;;;;;5057744;28;20201;-86
2023/09/05 05:54:42;;;;;;;5.03;3.43;;;;;;;;;;5069011;28;20180;-88
2023/09/05 05:57:08;;;;;;;3.37;3.07;;;;;;;;;;5070649;28;20176;-86
2023/09/05 05:59:34;;;;;;;3.97;3.50;;;;;;;;;;5072542;28;20181;-84
2023/09/05 06:02:00;;;;;;;3.80;3.50;;;;;;;;;;5070045;28;20210;-87
2023/09/05 06:04:26;;;;;;;8.00;3.50;;;;;;;;;;5073375;28;20186;-87
2023/09/05 06:06:53;;;;;;;4.10;2.90;;;;;;;;;;5076744;28;20255;-88
2023/09/05 06:09:19;;;;;;;3.03;2.83;;;;;;;;;;5078727;28;20157;-86
2023/09/05 06:11:45;;;;;;;3.57;3.00;;;;;;;;;;5076260;28;20169;-86
2023/09/05 06:14:12;;;;;;;3.80;3.50;;;;;;;;;;5072780;28;20200;-85
2023/09/05 06:16:38;;;;;;;5.87;3.10;;;;;;;;;;5075764;28;20181;-87
2023/09/05 06:19:04;;;;;;;3.00;2.80;;;;;;;;;;5070754;28;20778;-88
2023/09/05 06:21:30;;;;;;;4.03;3.43;;;;;;;;;;5071694;28;20248;-85
2023/09/05 06:23:58;;;;;;;2.70;2.50;;;;;;;;;;5076979;28;20173;-86
2023/09/05 06:26:24;;;;;;;3.57;3.27;;;;;;;;;;5057458;28;20188;-84
2023/09/05 06:28:51;;;;;;;3.47;3.00;;;;;;;;;;5049526;28;20375;-81
2023/09/05 06:31:17;;;;;;;3.20;2.90;;;;;;;;;;5067304;28;20239;-80
2023/09/05 06:33:43;;;;;;;3.63;3.33;;;;;;;;;;5074928;28;20645;-81
2023/09/05 06:36:11;;;;;;;3.53;3.23;;;;;;;;;;5076364;28;20179;-82
2023/09/05 06:38:37;;;;;;;4.60;2.83;;;;;;;;;;5071786;28;20188;-83
2023/09/05 06:41:06;;;;;;;3.23;2.90;;;;;;;;;;5071444;28;20252;-83
2023/09/05 06:43:32;;;;;;;3.93;3.33;;;;;;;;;;5053768;28;20209;-84
2023/09/05 06:46:05;;;;;;;2.93;2.73;;;;;;;;;;5043887;28;20646;-84
2023/09/05 06:48:31;;;;;;;3.33;3.00;;;;;;;;;;5071450;28;20185;-75
2023/09/05 06:50:58;;;;;;;3.00;2.80;;;;;;;;;;5077257;28;20176;-76
2023/09/05 06:53:24;;;;;;;4.73;2.60;;;;;;;;;;5072921;28;20712;-78
2023/09/05 06:55:51;;;;;;;3.23;2.90;;;;;;;;;;5081202;28;20177;-77
2023/09/05 06:58:18;;;;;;;3.27;2.97;;;;;;;;;;5066292;28;20167;-76
2023/09/05 07:00:44;;;;;;;3.07;2.83;;;;;;;;;;5078836;28;20276;-75
2023/09/05 07:03:12;;;;;;;3.43;2.77;;;;;;;;;;5077313;28;20184;-75
2023/09/05 07:05:40;;;;;;;3.07;2.77;;;;;;;;;;5077643;28;20189;-77
2023/09/05 07:08:06;;;;;;;3.37;3.07;;;;;;;;;;5076538;28;20228;-76
2023/09/05 07:10:32;;;;;;;2.97;2.77;;;;;;;;;;5079460;28;20177;-76
2023/09/05 07:12:58;;;;;;;2.90;2.60;;;;;;;;;;5077843;28;20207;-76
2023/09/05 07:15:24;;;;;;;4.17;2.77;;;;;;;;;;5058364;28;20232;-75
2023/09/05 07:17:51;;;;;;;3.03;2.80;;;;;;;;;;5075734;28;20211;-75
2023/09/05 07:20:17;;;;;;;2.93;2.70;;;;;;;;;;5078652;28;20184;-75
2023/09/05 07:22:43;;;;;;;3.27;2.97;;;;;;;;;;5080650;28;20184;-78
2023/09/05 07:25:09;;;;;;;3.43;2.87;;;;;;;;;;5082934;28;20538;-78
2023/09/05 07:27:35;;;;;;;2.73;2.50;;;;;;;;;;5080435;28;20180;-79
2023/09/05 07:30:01;;;;;;;3.07;2.87;;;;;;;;;;5069885;28;20161;-77
2023/09/05 07:32:27;;;;;;;3.17;2.77;;;;;;;;;;5056445;28;20347;-77
2023/09/05 07:34:54;;;;;;;2.57;2.37;;;;;;;;;;5077884;28;20210;-76
2023/09/05 07:37:20;;;;;;;3.23;2.53;;;;;;;;;;5076591;28;20187;-83
2023/09/05 07:39:49;;;;;;;2.67;2.47;;;;;;;;;;5059382;28;20173;-82
2023/09/05 07:42:16;;;;;;;4.40;2.87;;;;;;;;;;5062011;28;20230;-82
2023/09/05 07:44:42;;;;;;;2.60;2.40;;;;;;;;;;5073459;28;20656;-84
2023/09/05 07:47:08;;;;;;;3.27;2.87;;;;;;;;;;5068952;28;20181;-83
2023/09/05 07:49:37;;;;;;;3.10;2.80;;;;;;;;;;5080268;28;20161;-84
2023/09/05 07:52:04;;;;;;;3.03;2.83;;;;;;;;;;5079505;28;20466;-84
2023/09/05 07:54:30;;;;;;;2.50;2.30;;;;;;;;;;5079669;28;20233;-82
2023/09/05 07:56:56;;;;;;;3.87;2.70;;;;;;;;;;5050707;28;20176;-84
2023/09/05 07:59:23;;;;;;;2.87;2.63;;;;;;;;;;5059421;28;20186;-84
2023/09/05 08:01:49;;;;;;;2.73;2.53;;;;;;;;;;5058645;28;20238;-82
2023/09/05 08:04:15;;;;;;;2.63;2.43;;;;;;;;;;5060134;28;20166;-83
2023/09/05 08:06:42;;;;;;;2.70;2.50;;;;;;;;;;5059113;28;20225;-84
2023/09/05 08:09:08;;;;;;;2.90;2.70;;;;;;;;;;5059577;28;20188;-80
2023/09/05 08:11:34;;;;;;;3.47;2.97;;;;;;;;;;5057848;28;20663;-84
2023/09/05 08:14:00;;;;;;;2.80;2.60;;;;;;;;;;5068653;28;20212;-82
2023/09/05 08:16:27;;;;;;;3.10;2.80;;;;;;;;;;5078320;28;20176;-84
2023/09/05 08:18:53;;;;;;;3.00;2.80;;;;;;;;;;5078631;28;20180;-82
2023/09/05 08:21:19;;;;;;;2.90;2.70;;;;;;;;;;5078424;28;20179;-82
2023/09/05 08:23:45;;;;;;;3.33;3.03;;;;;;;;;;5078677;28;20178;-83
2023/09/05 08:26:11;;;;;;;2.67;2.47;;;;;;;;;;5079249;28;20515;-82
2023/09/05 08:28:42;;;;;;;3.43;3.13;;;;;;;;;;5076137;28;20215;-83
2023/09/05 08:31:09;;;;;;;3.27;2.90;;;;;;;;;;5076957;28;20208;-83
2023/09/05 08:33:35;;;;;;;2.80;2.60;;;;;;;;;;5078410;28;20192;-82
2023/09/05 08:36:01;;;;;;;2.70;2.50;;;;;;;;;;5079192;28;20179;-83
2023/09/05 08:38:27;;;;;;;3.20;2.50;;;;;;;;;;5060823;28;20177;-84
2023/09/05 08:40:53;;;;;;;3.40;2.30;;;;;;;;;;5078545;28;20602;-84
2023/09/05 08:43:19;;;;;;;4.40;2.53;;;;;;;;;;5074833;28;20172;-83
2023/09/05 08:45:45;;;;;;;2.53;2.30;;;;;;;;;;5073104;28;20173;-83
2023/09/05 08:48:12;;;;;;;2.60;2.40;;;;;;;;;;5077106;28;20194;-81
2023/09/05 08:50:40;;;;;;;2.73;2.53;;;;;;;;;;5078951;28;20182;-81
2023/09/05 08:53:11;;;;;;;2.47;2.27;;;;;;;;;;5078689;28;20217;-81
2023/09/05 08:55:40;;;;;;;2.73;2.53;;;;;;;;;;5078255;28;20215;-80
2023/09/05 08:58:08;;;;;;;3.10;2.87;;;;;;;;;;5077061;28;20557;-80
2023/09/05 09:00:35;;;;;;;3.37;2.97;;;;;;;;;;5070307;28;20176;-80
2023/09/05 09:03:01;;;;;;;3.33;3.03;;;;;;;;;;5074744;28;20157;-80
2023/09/05 09:05:28;;;;;;;2.70;2.50;;;;;;;;;;5077298;28;20176;-80
2023/09/05 09:07:54;;;;;;;3.17;2.30;;;;;;;;;;5077790;28;20224;-82
2023/09/05 09:10:21;;;;;;;2.70;2.30;;;;;;;;;;5077623;28;20168;-83
2023/09/05 09:12:50;;;;;;;3.23;3.00;;;;;;;;;;5041472;28;20204;-84
2023/09/05 09:15:16;;;;;;;2.40;2.20;;;;;;;;;;5072174;28;20164;-83
2023/09/05 09:17:43;;;;;;;4.73;2.20;;;;;;;;;;5076212;28;20184;-84
2023/09/05 09:20:12;;;;;;;2.47;2.27;;;;;;;;;;5077391;28;20267;-81
2023/09/05 09:22:38;;;;;;;2.87;2.67;;;;;;;;;;5059642;28;20181;-83
2023/09/05 09:25:14;;;;;;;2.53;2.33;;;;;;;;;;5057246;28;20184;-84
2023/09/05 09:27:44;;;;;;;3.97;2.90;;;;;;;;;;5057385;28;20260;-85
2023/09/05 09:30:10;;;;;;;4.10;2.40;;;;;;;;;;5062047;28;20180;-82
2023/09/05 09:32:37;;;;;;;2.50;2.30;;;;;;;;;;5075775;28;20656;-82
2023/09/05 09:35:05;;;;;;;2.43;2.23;;;;;;;;;;5077346;28;20214;-84
2023/09/05 09:37:31;;;;;;;2.57;2.37;;;;;;;;;;5070228;28;20197;-83
2023/09/05 09:39:58;;;;;;;3.43;3.13;;;;;;;;;;5056987;28;20194;-83
2023/09/05 09:42:25;;;;;;;2.50;2.30;;;;;;;;;;5056437;28;20718;-81
2023/09/05 09:44:52;;;;;;;2.40;2.20;;;;;;;;;;5065074;28;20605;-84
2023/09/05 09:47:18;;;;;;;3.67;2.27;;;;;;;;;;5075658;28;20164;-83
2023/09/05 09:49:47;;;;;;;2.53;2.33;;;;;;;;;;5076813;28;20255;-82
2023/09/05 09:52:15;;;;;;;2.60;2.33;;;;;;;;;;5076645;28;20628;-86
2023/09/05 09:54:44;;;;;;;3.40;2.23;;;;;;;;;;5077018;28;20161;-82
2023/09/05 09:57:12;;;;;;;3.63;1.97;;;;;;;;;;5075890;28;20188;-83
2023/09/05 09:59:43;;;;;;;2.57;2.37;;;;;;;;;;5077187;28;20176;-80
2023/09/05 10:02:10;;;;;;;2.47;2.27;;;;;;;;;;5076640;28;20597;-81
2023/09/05 10:04:37;;;;;;;1.90;1.80;;;;;;;;;;5077047;28;20180;-81
2023/09/05 10:07:06;;;;;;;2.50;2.30;;;;;;;;;;5075655;28;20681;-80
2023/09/05 10:09:33;;;;;;;2.57;2.37;;;;;;;;;;5077332;28;20172;-81
2023/09/05 10:12:01;;;;;;;2.40;2.20;;;;;;;;;;5076092;28;20161;-80
2023/09/05 10:14:28;;;;;;;3.53;2.30;;;;;;;;;;5076768;28;20187;-81
2023/09/05 10:16:54;;;;;;;2.30;2.10;;;;;;;;;;5076546;28;20165;-81
2023/09/05 10:19:21;;;;;;;2.90;2.17;;;;;;;;;;5059025;28;20651;-84
2023/09/05 10:21:48;;;;;;;2.60;2.07;;;;;;;;;;5065767;28;20174;-84
2023/09/05 10:24:15;;;;;;;2.70;2.50;;;;;;;;;;5056608;28;20191;-84
2023/09/05 10:26:41;;;;;;;2.33;2.13;;;;;;;;;;5056361;28;20170;-84
2023/09/05 10:29:26;;;;;;;2.57;2.37;;;;;;;;;;5055879;28;20209;-84
2023/09/05 10:31:52;;;;;;;2.50;2.30;;;;;;;;;;5037594;28;20465;-83
2023/09/05 10:34:18;;;;;;;2.23;2.13;;;;;;;;;;5069861;28;20233;-83
2023/09/05 10:36:46;;;;;;;2.27;2.07;;;;;;;;;;5060244;28;20637;-84
2023/09/05 10:39:27;;;;;;;2.10;2.00;;;;;;;;;;5056918;28;20693;-83
2023/09/05 10:41:53;;;;;;;3.23;2.23;;;;;;;;;;5056315;28;20166;-85
2023/09/05 10:44:19;;;;;;;5.03;2.30;;;;;;;;;;5056737;28;20168;-84
2023/09/05 10:46:50;;;;;;;2.70;2.20;;;;;;;;;;5053131;28;20808;-82
2023/09/05 10:49:16;;;;;;;2.53;2.33;;;;;;;;;;5070331;28;20186;-83
2023/09/05 10:52:01;;;;;;;3.73;2.10;;;;;;;;;;5068664;28;20182;-82
2023/09/05 10:54:28;;;;;;;2.83;2.00;;;;;;;;;;5053685;28;20205;-83
2023/09/05 10:56:54;;;;;;;2.40;2.20;;;;;;;;;;5074630;28;20181;-86
2023/09/05 10:59:27;;;;;;;2.07;1.90;;;;;;;;;;5069648;28;20541;-81
2023/09/05 11:02:09;;;;;;;2.37;2.07;;;;;;;;;;5060709;28;20709;-81
2023/09/05 11:04:37;;;;;;;2.10;2.00;;;;;;;;;;5070607;28;20187;-87
2023/09/05 11:07:04;;;;;;;3.10;2.00;;;;;;;;;;5063065;28;20229;-88
2023/09/05 11:09:39;;;;;;;2.23;1.90;;;;;;;;;;5075382;28;20240;-78
2023/09/05 11:12:06;;;;;;;2.40;2.20;;;;;;;;;;5076815;28;20241;-79
2023/09/05 11:14:35;;;;;;;2.13;1.93;;;;;;;;;;5074353;28;20181;-76
2023/09/05 11:17:02;;;;;;;4.83;2.00;;;;;;;;;;5072211;28;20263;-77
2023/09/05 11:19:30;;;;;;;2.40;2.20;;;;;;;;;;5045550;28;20188;-76
2023/09/05 11:22:11;;;;;;;2.20;2.00;;;;;;;;;;5078782;28;20218;-77
2023/09/05 11:24:45;;;;;;;2.40;2.20;;;;;;;;;;5065471;28;20198;-77
2023/09/05 11:27:11;;;;;;;2.30;2.10;;;;;;;;;;5071720;28;20177;-80
2023/09/05 11:29:39;;;;;;;2.20;2.00;;;;;;;;;;5080293;28;20685;-81
2023/09/05 11:32:06;;;;;;;2.00;1.90;;;;;;;;;;5080640;28;20243;-81
2023/09/05 11:34:33;;;;;;;2.40;2.20;;;;;;;;;;5080283;28;20209;-82
2023/09/05 11:37:00;;;;;;;2.00;1.90;;;;;;;;;;5081096;28;20153;-81
2023/09/05 11:39:29;;;;;;;2.17;2.07;;;;;;;;;;5080278;28;20229;-81
2023/09/05 11:41:58;;;;;;;2.10;2.00;;;;;;;;;;5078667;28;20925;-80
2023/09/05 11:44:37;;;;;;;3.20;1.93;;;;;;;;;;5065807;28;20243;-84
2023/09/05 11:47:03;;;;;;;2.23;2.13;;;;;;;;;;5069072;28;20648;-78
2023/09/05 11:49:30;;;;;;;2.55;2.00;;;;;;;;;;5077590;28;20204;-81
2023/09/05 11:51:58;;;;;;;2.88;2.53;;;;;;;;;;5075544;28;20203;-81
2023/09/05 11:54:24;;;;;;;2.30;2.10;;;;;;;;;;5073563;28;20203;-83
2023/09/05 11:56:50;;;;;;;2.20;2.00;;;;;;;;;;5076140;28;20212;-82
2023/09/05 11:59:17;;;;;;;4.53;2.90;;;;;;;;;;5059963;28;20176;-83
2023/09/05 12:01:43;;;;;;;3.03;1.95;;;;;;;;;;5071329;28;20178;-82
2023/09/05 12:04:10;;;;;;;4.72;2.60;;;;;;;;;;5078460;28;20199;-83
2023/09/05 12:06:36;;;;;;;4.85;2.40;;;;;;;;;;5079303;28;20232;-83
2023/09/05 12:09:03;;;;;;;2.15;2.00;;;;;;;;;;5078049;28;20189;-83
2023/09/05 12:11:29;;;;;;;4.38;2.25;;;;;;;;;;5078687;28;20168;-82
2023/09/05 12:13:58;;;;;;;2.35;1.95;;;;;;;;;;5077703;28;20208;-83
2023/09/05 12:16:24;;;;;;;2.22;1.80;;;;;;;;;;5076112;28;20275;-83
2023/09/05 12:19:00;;;;;;;5.22;2.15;;;;;;;;;;5069819;28;20164;-88
2023/09/05 12:21:39;;;;;;;3.40;2.05;;;;;;;;;;5077386;28;20196;-87
2023/09/05 12:24:21;;;;;;;2.70;1.77;;;;;;;;;;5072029;28;20659;-87
2023/09/05 12:26:49;;;;;;;2.00;1.90;;;;;;;;;;5070335;28;20177;-86
2023/09/05 12:29:15;;;;;;;2.15;1.95;;;;;;;;;;5070732;28;20201;-86
2023/09/05 12:31:44;;;;;;;1.95;1.85;;;;;;;;;;5067306;28;20180;-86
2023/09/05 12:34:10;;;;;;;1.85;1.75;;;;;;;;;;5077959;28;20192;-84
2023/09/05 12:36:36;;;;;;;2.10;2.00;;;;;;;;;;5076314;28;20182;-86
2023/09/05 12:39:02;;;;;;;2.25;1.60;;;;;;;;;;5074211;28;20809;-83
2023/09/05 12:41:28;;;;;;;2.20;2.00;;;;;;;;;;5057192;28;20177;-86
2023/09/05 12:43:55;;;;;;;1.90;1.80;;;;;;;;;;5049726;28;20214;-84
2023/09/05 12:46:21;;;;;;;1.77;1.67;;;;;;;;;;5051273;28;21007;-84
2023/09/05 12:48:53;;;;;;;2.10;2.00;;;;;;;;;;5072240;28;20192;-84
2023/09/05 12:51:19;;;;;;;2.33;1.98;;;;;;;;;;5072537;28;20271;-86
2023/09/05 12:53:47;;;;;;;3.43;2.03;;;;;;;;;;5055829;28;20219;-84
2023/09/05 12:56:14;;;;;;;4.60;1.73;;;;;;;;;;5075965;28;20188;-86
2023/09/05 12:58:40;;;;;;;2.20;1.80;;;;;;;;;;5076859;28;20620;-85
2023/09/05 13:01:06;;;;;;;2.10;1.90;;;;;;;;;;5067727;28;20188;-85
2023/09/05 13:03:32;;;;;;;2.60;1.80;;;;;;;;;;5049096;28;20177;-85
2023/09/05 13:05:58;;;;;;;1.80;1.70;;;;;;;;;;5037739;28;1091867;-85
2023/09/05 13:08:24;;;;;;;1.65;1.55;;;;;;;;;;5060899;28;20207;-85
2023/09/05 13:10:51;;;;;;;1.90;1.80;;;;;;;;;;5075288;28;20191;-84
2023/09/05 13:13:17;;;;;;;2.00;1.90;;;;;;;;;;5075023;28;20205;-85
2023/09/05 13:15:43;;;;;;;2.83;1.67;;;;;;;;;;5070656;28;20187;-86
2023/09/05 13:18:10;;;;;;;1.90;1.80;;;;;;;;;;5049852;28;20248;-86
2023/09/05 13:20:36;;;;;;;4.57;2.08;;;;;;;;;;5076140;28;20195;-86
2023/09/05 13:23:02;;;;;;;2.85;2.15;;;;;;;;;;5073354;28;20177;-85
2023/09/05 13:25:32;;;;;;;1.83;1.73;;;;;;;;;;5058628;28;20219;-85
2023/09/05 13:27:58;;;;;;;2.38;2.17;;;;;;;;;;5058498;28;20201;-85
2023/09/05 13:30:24;;;;;;;2.03;1.83;;;;;;;;;;5058829;28;20193;-84
2023/09/05 13:32:52;;;;;;;2.45;1.92;;;;;;;;;;5065332;28;20212;-84
2023/09/05 13:35:18;;;;;;;2.10;1.90;;;;;;;;;;5068604;28;20173;-85
2023/09/05 13:37:44;;;;;;;1.77;1.67;;;;;;;;;;5078081;28;20184;-89
2023/09/05 13:40:11;;;;;;;2.00;1.80;;;;;;;;;;5076812;28;20198;-82
2023/09/05 13:42:37;;;;;;;1.90;1.80;;;;;;;;;;5077637;28;20188;-87
2023/09/05 13:45:03;;;;;;;1.90;1.80;;;;;;;;;;5077072;28;20189;-88
2023/09/05 13:47:30;;;;;;;6.50;1.92;;;;;;;;;;5078884;28;20196;-88
2023/09/05 13:49:56;;;;;;;1.83;1.73;;;;;;;;;;5058449;28;20254;-81
2023/09/05 13:52:22;;;;;;;2.03;1.92;;;;;;;;;;5076815;28;20429;-79
2023/09/05 13:54:48;;;;;;;1.90;1.80;;;;;;;;;;5075996;28;20187;-81
2023/09/05 13:57:15;;;;;;;3.33;2.55;;;;;;;;;;5053618;28;20674;-86
2023/09/05 13:59:41;;;;;;;3.80;3.58;;;;;;;;;;5066457;28;20176;-81
2023/09/05 14:02:09;;;;;;;2.65;2.45;;;;;;;;;;5070071;28;20165;-80
2023/09/05 14:04:35;;;;;;;2.20;2.00;;;;;;;;;;5071123;28;20199;-81
2023/09/05 14:07:01;;;;;;;4.60;2.00;;;;;;;;;;5073864;28;20224;-81
2023/09/05 14:09:27;;;;;;;2.53;2.33;;;;;;;;;;5076264;28;20669;-81
2023/09/05 14:11:53;;;;;;;2.00;1.90;;;;;;;;;;5074628;28;20200;-80
2023/09/05 14:14:19;;;;;;;2.08;1.90;;;;;;;;;;5064177;28;20254;-82
2023/09/05 14:16:45;;;;;;;2.17;1.98;;;;;;;;;;5073001;28;20184;-82
2023/09/05 14:19:11;;;;;;;1.80;1.70;;;;;;;;;;5050086;28;20246;-82
2023/09/05 14:21:37;;;;;;;2.28;2.08;;;;;;;;;;5061013;28;20636;-82
2023/09/05 14:24:03;;;;;;;2.10;2.00;;;;;;;;;;5072111;28;20175;-80
2023/09/05 14:26:30;;;;;;;5.03;1.95;;;;;;;;;;5069607;28;20173;-80
2023/09/05 14:28:59;;;;;;;2.55;1.70;;;;;;;;;;5064289;28;20311;-81
2023/09/05 14:31:25;;;;;;;2.15;2.03;;;;;;;;;;5068862;28;20658;-82
2023/09/05 14:33:51;;;;;;;2.10;2.00;;;;;;;;;;5070034;28;20209;-81
2023/09/05 14:36:18;;;;;;;2.10;1.80;;;;;;;;;;5069183;28;20173;-82
2023/09/05 14:38:44;;;;;;;4.95;2.10;;;;;;;;;;5067811;28;20488;-82
2023/09/05 14:41:10;;;;;;;3.38;1.90;;;;;;;;;;5069994;28;20268;-83
2023/09/05 14:43:36;;;;;;;2.03;1.92;;;;;;;;;;5075213;28;20181;-83